sensor_id;sensor_type;location;lat;lon;timestamp;pressure;altitude;pressure_sealevel;temperature;humidity
61568;BME280;47462;59.172;17.196;2022-10-26T00:01:18;100201.66;;;10.64;91.26
61568;BME280;47462;59.172;17.196;2022-10-26T00:03:43;100206.25;;;10.57;91.39
61568;BME280;47462;59.172;17.196;2022-10-26T00:06:14;100205.19;;;10.63;91.09
61568;BME280;47462;59.172;17.196;2022-10-26T00:08:40;100207.69;;;10.66;90.99
61568;BME280;47462;59.172;17.196;2022-10-26T00:11:06;100211.94;;;10.68;90.65
61568;BME280;47462;59.172;17.196;2022-10-26T00:13:32;100157.38;;;10.39;90.44
61568;BME280;47462;59.172;17.196;2022-10-26T00:15:58;100177.97;;;10.46;90.02
61568;BME280;47462;59.172;17.196;2022-10-26T00:18:23;100193.66;;;10.45;90.23
61568;BME280;47462;59.172;17.196;2022-10-26T00:20:50;100213.88;;;10.63;90.38
61568;BME280;47462;59.172;17.196;2022-10-26T00:23:15;100190.91;;;10.49;89.90
61568;BME280;47462;59.172;17.196;2022-10-26T00:25:41;100219.09;;;10.63;90.13
61568;BME280;47462;59.172;17.196;2022-10-26T00:28:06;100116.31;;;9.95;89.93
61568;BME280;47462;59.172;17.196;2022-10-26T00:30:32;100225.66;;;10.50;89.74
61568;BME280;47462;59.172;17.196;2022-10-26T00:32:57;100212.00;;;10.43;90.03
61568;BME280;47462;59.172;17.196;2022-10-26T00:35:23;100239.47;;;10.53;89.80
61568;BME280;47462;59.172;17.196;2022-10-26T00:37:53;100207.09;;;10.34;89.56
61568;BME280;47462;59.172;17.196;2022-10-26T00:40:18;100224.97;;;10.45;89.75
61568;BME280;47462;59.172;17.196;2022-10-26T00:42:43;100200.69;;;10.17;89.41
61568;BME280;47462;59.172;17.196;2022-10-26T00:45:24;100214.63;;;10.16;89.35
61568;BME280;47462;59.172;17.196;2022-10-26T00:50:21;100230.38;;;10.13;89.36
61568;BME280;47462;59.172;17.196;2022-10-26T00:52:49;100225.09;;;10.15;89.36
61568;BME280;47462;59.172;17.196;2022-10-26T00:55:17;100203.09;;;9.98;89.27
61568;BME280;47462;59.172;17.196;2022-10-26T00:57:46;100245.06;;;10.16;89.07
61568;BME280;47462;59.172;17.196;2022-10-26T01:00:12;100198.25;;;9.86;88.98
61568;BME280;47462;59.172;17.196;2022-10-26T01:02:38;100183.19;;;9.69;88.53
61568;BME280;47462;59.172;17.196;2022-10-26T01:05:05;100245.59;;;10.00;88.53
61568;BME280;47462;59.172;17.196;2022-10-26T01:07:30;100234.53;;;9.94;88.59
61568;BME280;47462;59.172;17.196;2022-10-26T01:09:57;100233.72;;;9.92;88.55
61568;BME280;47462;59.172;17.196;2022-10-26T01:12:23;100246.28;;;10.06;88.48
61568;BME280;47462;59.172;17.196;2022-10-26T01:14:48;100249.28;;;9.93;88.72
61568;BME280;47462;59.172;17.196;2022-10-26T01:22:58;100248.91;;;9.79;88.78
61568;BME280;47462;59.172;17.196;2022-10-26T01:30:57;100258.47;;;9.78;89.05
61568;BME280;47462;59.172;17.196;2022-10-26T01:33:36;100272.91;;;9.89;89.05
61568;BME280;47462;59.172;17.196;2022-10-26T01:36:17;100260.13;;;9.81;89.03
61568;BME280;47462;59.172;17.196;2022-10-26T01:39:09;100277.56;;;9.79;89.07
61568;BME280;47462;59.172;17.196;2022-10-26T01:41:49;100244.34;;;9.59;89.43
61568;BME280;47462;59.172;17.196;2022-10-26T01:44:20;100286.88;;;9.86;89.28
61568;BME280;47462;59.172;17.196;2022-10-26T01:46:50;100283.81;;;9.73;89.32
61568;BME280;47462;59.172;17.196;2022-10-26T01:49:20;100283.53;;;9.82;89.43
61568;BME280;47462;59.172;17.196;2022-10-26T01:51:48;100203.38;;;9.37;89.45
61568;BME280;47462;59.172;17.196;2022-10-26T01:54:14;100288.00;;;9.79;89.41
61568;BME280;47462;59.172;17.196;2022-10-26T01:56:41;100274.25;;;9.74;89.60
61568;BME280;47462;59.172;17.196;2022-10-26T02:15:19;100283.94;;;9.42;89.39
61568;BME280;47462;59.172;17.196;2022-10-26T02:18:21;100233.41;;;9.19;89.34
61568;BME280;47462;59.172;17.196;2022-10-26T02:20:46;100303.88;;;9.71;89.26
61568;BME280;47462;59.172;17.196;2022-10-26T02:23:14;100264.56;;;9.51;89.22
61568;BME280;47462;59.172;17.196;2022-10-26T02:25:45;100311.66;;;9.73;88.99
61568;BME280;47462;59.172;17.196;2022-10-26T02:28:15;100313.28;;;9.75;89.22
61568;BME280;47462;59.172;17.196;2022-10-26T02:30:42;100220.34;;;9.21;88.91
61568;BME280;47462;59.172;17.196;2022-10-26T02:33:11;100264.09;;;9.38;88.53
61568;BME280;47462;59.172;17.196;2022-10-26T02:35:39;100315.25;;;9.69;88.92
61568;BME280;47462;59.172;17.196;2022-10-26T02:38:09;100324.00;;;9.66;88.83
61568;BME280;47462;59.172;17.196;2022-10-26T02:40:36;100287.34;;;9.44;88.57
61568;BME280;47462;59.172;17.196;2022-10-26T02:43:10;100332.19;;;9.54;88.84
61568;BME280;47462;59.172;17.196;2022-10-26T02:45:45;100251.22;;;9.03;88.94
61568;BME280;47462;59.172;17.196;2022-10-26T02:48:13;100297.03;;;9.40;89.09
61568;BME280;47462;59.172;17.196;2022-10-26T02:50:54;100333.66;;;9.62;89.06
61568;BME280;47462;59.172;17.196;2022-10-26T02:53:28;100339.72;;;9.63;88.95
61568;BME280;47462;59.172;17.196;2022-10-26T02:56:06;100333.16;;;9.51;88.88
61568;BME280;47462;59.172;17.196;2022-10-26T02:58:37;100137.22;;;8.27;88.71
61568;BME280;47462;59.172;17.196;2022-10-26T03:01:05;100326.19;;;9.52;88.86
61568;BME280;47462;59.172;17.196;2022-10-26T03:03:31;100339.97;;;9.55;89.09
61568;BME280;47462;59.172;17.196;2022-10-26T03:05:57;100276.91;;;9.16;89.00
61568;BME280;47462;59.172;17.196;2022-10-26T03:08:22;100339.50;;;9.42;89.01
61568;BME280;47462;59.172;17.196;2022-10-26T03:10:48;100280.31;;;9.18;89.28
61568;BME280;47462;59.172;17.196;2022-10-26T03:13:13;100341.81;;;9.52;89.03
61568;BME280;47462;59.172;17.196;2022-10-26T03:15:39;100338.31;;;9.53;88.95
61568;BME280;47462;59.172;17.196;2022-10-26T03:18:04;100347.69;;;9.58;88.98
61568;BME280;47462;59.172;17.196;2022-10-26T03:20:30;100284.75;;;9.14;89.11
61568;BME280;47462;59.172;17.196;2022-10-26T03:22:56;100341.25;;;9.42;89.07
61568;BME280;47462;59.172;17.196;2022-10-26T03:25:22;100319.81;;;9.32;89.17
61568;BME280;47462;59.172;17.196;2022-10-26T03:27:58;100364.41;;;9.51;89.19
61568;BME280;47462;59.172;17.196;2022-10-26T03:30:25;100339.81;;;9.32;88.86
61568;BME280;47462;59.172;17.196;2022-10-26T03:32:51;100364.66;;;9.43;89.03
61568;BME280;47462;59.172;17.196;2022-10-26T03:35:16;100351.94;;;9.33;89.22
61568;BME280;47462;59.172;17.196;2022-10-26T03:37:42;100282.72;;;8.94;89.12
61568;BME280;47462;59.172;17.196;2022-10-26T03:40:08;100413.78;;;9.56;89.07
61568;BME280;47462;59.172;17.196;2022-10-26T03:42:37;100383.41;;;9.55;88.62
61568;BME280;47462;59.172;17.196;2022-10-26T03:45:03;100309.47;;;9.01;88.56
61568;BME280;47462;59.172;17.196;2022-10-26T03:47:28;100391.25;;;9.53;88.55
61568;BME280;47462;59.172;17.196;2022-10-26T03:49:53;100325.69;;;9.09;88.48
61568;BME280;47462;59.172;17.196;2022-10-26T03:52:19;100343.66;;;9.18;88.56
61568;BME280;47462;59.172;17.196;2022-10-26T03:54:44;100382.94;;;9.42;88.37
61568;BME280;47462;59.172;17.196;2022-10-26T03:57:09;100378.72;;;9.36;88.51
61568;BME280;47462;59.172;17.196;2022-10-26T03:59:35;100397.50;;;9.48;88.48
61568;BME280;47462;59.172;17.196;2022-10-26T04:02:01;100405.31;;;9.48;88.60
61568;BME280;47462;59.172;17.196;2022-10-26T04:04:26;100372.03;;;9.27;88.59
61568;BME280;47462;59.172;17.196;2022-10-26T04:06:52;100353.50;;;9.08;88.49
61568;BME280;47462;59.172;17.196;2022-10-26T04:09:17;100413.44;;;9.37;88.78
61568;BME280;47462;59.172;17.196;2022-10-26T04:11:42;100230.63;;;8.33;88.67
61568;BME280;47462;59.172;17.196;2022-10-26T04:14:08;100388.56;;;9.26;88.74
61568;BME280;47462;59.172;17.196;2022-10-26T04:16:33;100413.22;;;9.44;88.65
61568;BME280;47462;59.172;17.196;2022-10-26T04:18:59;100410.91;;;9.34;88.50
61568;BME280;47462;59.172;17.196;2022-10-26T04:21:25;100379.53;;;9.08;88.44
61568;BME280;47462;59.172;17.196;2022-10-26T04:23:50;100406.06;;;9.21;88.48
61568;BME280;47462;59.172;17.196;2022-10-26T04:26:15;100360.94;;;8.89;88.52
61568;BME280;47462;59.172;17.196;2022-10-26T04:28:41;100420.66;;;9.27;88.51
61568;BME280;47462;59.172;17.196;2022-10-26T04:31:06;100424.09;;;9.27;88.44
61568;BME280;47462;59.172;17.196;2022-10-26T04:33:31;100427.75;;;9.22;88.20
61568;BME280;47462;59.172;17.196;2022-10-26T04:36:01;100422.84;;;9.09;88.14
61568;BME280;47462;59.172;17.196;2022-10-26T04:38:27;100437.50;;;9.14;88.31
61568;BME280;47462;59.172;17.196;2022-10-26T04:40:52;100437.38;;;9.18;88.79
61568;BME280;47462;59.172;17.196;2022-10-26T04:43:18;100447.03;;;9.15;88.53
61568;BME280;47462;59.172;17.196;2022-10-26T04:45:43;100444.41;;;9.16;88.47
61568;BME280;47462;59.172;17.196;2022-10-26T04:48:10;100422.13;;;9.04;88.52
61568;BME280;47462;59.172;17.196;2022-10-26T04:50:37;100449.31;;;9.27;88.59
61568;BME280;47462;59.172;17.196;2022-10-26T04:53:04;100435.69;;;9.16;88.11
61568;BME280;47462;59.172;17.196;2022-10-26T04:55:30;100446.19;;;9.13;88.51
61568;BME280;47462;59.172;17.196;2022-10-26T04:57:56;100456.22;;;8.95;88.63
61568;BME280;47462;59.172;17.196;2022-10-26T05:00:21;100453.63;;;8.95;88.98
61568;BME280;47462;59.172;17.196;2022-10-26T05:02:47;100417.06;;;8.67;89.39
61568;BME280;47462;59.172;17.196;2022-10-26T05:05:12;100458.13;;;8.88;89.73
61568;BME280;47462;59.172;17.196;2022-10-26T05:07:38;100470.13;;;8.94;89.67
61568;BME280;47462;59.172;17.196;2022-10-26T05:10:04;100456.06;;;9.01;89.89
61568;BME280;47462;59.172;17.196;2022-10-26T05:12:29;100439.84;;;8.91;89.62
61568;BME280;47462;59.172;17.196;2022-10-26T05:14:55;100466.44;;;9.03;89.15
61568;BME280;47462;59.172;17.196;2022-10-26T05:17:24;100451.56;;;8.73;89.30
61568;BME280;47462;59.172;17.196;2022-10-26T05:19:50;100431.88;;;8.63;89.34
61568;BME280;47462;59.172;17.196;2022-10-26T05:22:23;100478.84;;;8.93;89.14
61568;BME280;47462;59.172;17.196;2022-10-26T05:24:48;100483.88;;;8.99;89.00
61568;BME280;47462;59.172;17.196;2022-10-26T05:27:14;100436.00;;;8.72;88.87
61568;BME280;47462;59.172;17.196;2022-10-26T05:29:39;100469.31;;;8.92;88.78
61568;BME280;47462;59.172;17.196;2022-10-26T05:32:05;100409.72;;;8.47;88.56
61568;BME280;47462;59.172;17.196;2022-10-26T05:34:31;100408.22;;;8.36;88.62
61568;BME280;47462;59.172;17.196;2022-10-26T05:36:56;100377.66;;;8.10;88.36
61568;BME280;47462;59.172;17.196;2022-10-26T05:39:21;100496.34;;;8.86;88.85
61568;BME280;47462;59.172;17.196;2022-10-26T05:41:47;100463.13;;;8.62;88.47
61568;BME280;47462;59.172;17.196;2022-10-26T05:44:12;100478.56;;;8.68;88.31
61568;BME280;47462;59.172;17.196;2022-10-26T05:46:37;100429.50;;;8.16;88.30
61568;BME280;47462;59.172;17.196;2022-10-26T05:49:03;100510.97;;;8.56;88.40
61568;BME280;47462;59.172;17.196;2022-10-26T05:51:28;100543.88;;;8.57;88.83
61568;BME280;47462;59.172;17.196;2022-10-26T05:53:54;100490.38;;;8.45;88.63
61568;BME280;47462;59.172;17.196;2022-10-26T05:56:33;100511.00;;;8.53;88.52
61568;BME280;47462;59.172;17.196;2022-10-26T05:58:59;100504.38;;;8.39;88.49
61568;BME280;47462;59.172;17.196;2022-10-26T06:04:43;100540.00;;;8.34;88.55
61568;BME280;47462;59.172;17.196;2022-10-26T06:07:16;100540.09;;;8.30;88.61
61568;BME280;47462;59.172;17.196;2022-10-26T06:09:42;100520.34;;;8.23;88.62
61568;BME280;47462;59.172;17.196;2022-10-26T06:12:09;100450.22;;;7.80;88.37
61568;BME280;47462;59.172;17.196;2022-10-26T06:14:35;100542.59;;;8.34;88.27
61568;BME280;47462;59.172;17.196;2022-10-26T06:25:46;100561.47;;;8.46;88.16
61568;BME280;47462;59.172;17.196;2022-10-26T06:28:47;100473.59;;;7.80;88.32
61568;BME280;47462;59.172;17.196;2022-10-26T06:31:15;100572.69;;;8.48;88.34
61568;BME280;47462;59.172;17.196;2022-10-26T06:33:40;100576.00;;;8.54;88.41
61568;BME280;47462;59.172;17.196;2022-10-26T06:38:33;100555.34;;;8.47;88.15
61568;BME280;47462;59.172;17.196;2022-10-26T06:41:00;100576.69;;;8.63;88.00
61568;BME280;47462;59.172;17.196;2022-10-26T06:43:28;100566.59;;;8.49;88.28
61568;BME280;47462;59.172;17.196;2022-10-26T06:48:42;100597.47;;;8.64;88.31
61568;BME280;47462;59.172;17.196;2022-10-26T06:51:14;100556.44;;;8.36;88.23
61568;BME280;47462;59.172;17.196;2022-10-26T06:56:41;100557.19;;;8.42;88.38
61568;BME280;47462;59.172;17.196;2022-10-26T07:02:01;100604.94;;;8.80;88.28
61568;BME280;47462;59.172;17.196;2022-10-26T07:04:34;100568.03;;;8.62;87.98
61568;BME280;47462;59.172;17.196;2022-10-26T07:07:05;100610.72;;;8.91;87.83
61568;BME280;47462;59.172;17.196;2022-10-26T07:09:31;100628.81;;;8.97;87.65
61568;BME280;47462;59.172;17.196;2022-10-26T07:11:58;100614.16;;;8.93;87.77
61568;BME280;47462;59.172;17.196;2022-10-26T07:14:27;100513.97;;;8.36;87.71
61568;BME280;47462;59.172;17.196;2022-10-26T07:16:56;100633.94;;;9.00;87.60
61568;BME280;47462;59.172;17.196;2022-10-26T07:19:26;100513.19;;;8.32;87.43
61568;BME280;47462;59.172;17.196;2022-10-26T07:21:55;100628.13;;;8.89;87.07
61568;BME280;47462;59.172;17.196;2022-10-26T07:24:24;100638.75;;;8.80;87.13
61568;BME280;47462;59.172;17.196;2022-10-26T07:26:58;100385.56;;;7.26;87.08
61568;BME280;47462;59.172;17.196;2022-10-26T07:29:25;100237.63;;;6.40;86.89
61568;BME280;47462;59.172;17.196;2022-10-26T07:31:54;100649.84;;;8.88;87.15
61568;BME280;47462;59.172;17.196;2022-10-26T07:34:22;100640.41;;;8.84;86.67
61568;BME280;47462;59.172;17.196;2022-10-26T07:36:48;100629.25;;;8.36;86.89
61568;BME280;47462;59.172;17.196;2022-10-26T07:39:15;100644.88;;;8.77;87.04
61568;BME280;47462;59.172;17.196;2022-10-26T07:41:41;100615.94;;;8.52;86.73
61568;BME280;47462;59.172;17.196;2022-10-26T07:44:06;100634.09;;;8.55;86.60
61568;BME280;47462;59.172;17.196;2022-10-26T07:46:31;100595.47;;;8.35;86.82
61568;BME280;47462;59.172;17.196;2022-10-26T07:48:58;100628.94;;;8.53;86.63
61568;BME280;47462;59.172;17.196;2022-10-26T07:51:23;100671.00;;;8.72;86.83
61568;BME280;47462;59.172;17.196;2022-10-26T07:53:49;100689.03;;;8.80;86.27
61568;BME280;47462;59.172;17.196;2022-10-26T07:56:14;100673.41;;;8.82;86.71
61568;BME280;47462;59.172;17.196;2022-10-26T07:58:40;100681.09;;;8.86;86.39
61568;BME280;47462;59.172;17.196;2022-10-26T08:01:11;100690.03;;;8.76;86.09
61568;BME280;47462;59.172;17.196;2022-10-26T08:03:37;100669.41;;;8.67;86.06
61568;BME280;47462;59.172;17.196;2022-10-26T08:06:03;100689.47;;;8.60;86.28
61568;BME280;47462;59.172;17.196;2022-10-26T08:08:30;100644.13;;;8.28;86.37
61568;BME280;47462;59.172;17.196;2022-10-26T08:10:55;100653.38;;;8.45;86.60
61568;BME280;47462;59.172;17.196;2022-10-26T08:13:21;100650.72;;;8.48;86.56
61568;BME280;47462;59.172;17.196;2022-10-26T08:15:46;100672.88;;;8.66;86.58
61568;BME280;47462;59.172;17.196;2022-10-26T08:18:12;100694.13;;;8.86;86.55
61568;BME280;47462;59.172;17.196;2022-10-26T08:20:37;100627.31;;;8.48;86.18
61568;BME280;47462;59.172;17.196;2022-10-26T08:23:03;100723.56;;;8.90;85.90
61568;BME280;47462;59.172;17.196;2022-10-26T08:25:31;100696.75;;;8.85;86.11
61568;BME280;47462;59.172;17.196;2022-10-26T08:28:01;100711.69;;;8.77;85.80
61568;BME280;47462;59.172;17.196;2022-10-26T08:30:30;100663.69;;;8.49;86.25
61568;BME280;47462;59.172;17.196;2022-10-26T08:33:04;100679.00;;;8.63;86.10
61568;BME280;47462;59.172;17.196;2022-10-26T08:35:30;100718.34;;;8.90;86.52
61568;BME280;47462;59.172;17.196;2022-10-26T08:37:56;100728.75;;;8.90;86.39
61568;BME280;47462;59.172;17.196;2022-10-26T08:40:25;100719.31;;;8.84;86.17
61568;BME280;47462;59.172;17.196;2022-10-26T08:42:56;100735.66;;;8.91;86.32
61568;BME280;47462;59.172;17.196;2022-10-26T08:45:29;100739.91;;;8.95;86.26
61568;BME280;47462;59.172;17.196;2022-10-26T08:47:59;100709.25;;;8.69;86.30
61568;BME280;47462;59.172;17.196;2022-10-26T08:50:34;100741.66;;;8.95;86.55
61568;BME280;47462;59.172;17.196;2022-10-26T08:53:28;100715.97;;;8.79;86.40
61568;BME280;47462;59.172;17.196;2022-10-26T08:56:05;100735.72;;;8.88;86.19
61568;BME280;47462;59.172;17.196;2022-10-26T08:58:40;100740.84;;;8.91;86.10
61568;BME280;47462;59.172;17.196;2022-10-26T09:01:09;100699.84;;;8.62;85.59
61568;BME280;47462;59.172;17.196;2022-10-26T09:03:35;100748.81;;;8.83;86.01
61568;BME280;47462;59.172;17.196;2022-10-26T09:09:13;100741.63;;;8.96;86.18
61568;BME280;47462;59.172;17.196;2022-10-26T09:14:55;100741.66;;;8.95;86.49
61568;BME280;47462;59.172;17.196;2022-10-26T09:20:18;100684.94;;;8.70;86.20
61568;BME280;47462;59.172;17.196;2022-10-26T09:22:59;100754.44;;;9.05;86.11
61568;BME280;47462;59.172;17.196;2022-10-26T09:25:32;100698.06;;;8.65;86.44
61568;BME280;47462;59.172;17.196;2022-10-26T09:28:02;100756.16;;;9.06;86.35
61568;BME280;47462;59.172;17.196;2022-10-26T09:30:29;100752.47;;;9.17;86.11
61568;BME280;47462;59.172;17.196;2022-10-26T09:32:58;100648.56;;;8.68;85.94
61568;BME280;47462;59.172;17.196;2022-10-26T09:35:41;100748.81;;;9.25;85.43
61568;BME280;47462;59.172;17.196;2022-10-26T09:41:00;100750.56;;;9.25;85.35
61568;BME280;47462;59.172;17.196;2022-10-26T09:43:42;100749.44;;;9.35;85.21
61568;BME280;47462;59.172;17.196;2022-10-26T09:46:20;100721.34;;;9.10;84.68
61568;BME280;47462;59.172;17.196;2022-10-26T09:48:50;100729.81;;;9.22;85.15
61568;BME280;47462;59.172;17.196;2022-10-26T09:51:18;100680.81;;;8.99;84.43
61568;BME280;47462;59.172;17.196;2022-10-26T09:53:44;100748.84;;;9.24;84.59
61568;BME280;47462;59.172;17.196;2022-10-26T09:56:12;100720.31;;;9.19;84.99
61568;BME280;47462;59.172;17.196;2022-10-26T09:58:54;100751.69;;;9.51;84.75
61568;BME280;47462;59.172;17.196;2022-10-26T10:06:42;100715.59;;;8.96;84.49
61568;BME280;47462;59.172;17.196;2022-10-26T10:09:16;100777.94;;;9.41;84.75
61568;BME280;47462;59.172;17.196;2022-10-26T10:11:56;100571.41;;;8.25;84.53
61568;BME280;47462;59.172;17.196;2022-10-26T10:14:28;100768.22;;;9.50;84.71
61568;BME280;47462;59.172;17.196;2022-10-26T10:16:54;100776.53;;;9.66;84.60
61568;BME280;47462;59.172;17.196;2022-10-26T10:19:26;100777.28;;;9.71;84.09
61568;BME280;47462;59.172;17.196;2022-10-26T10:22:10;100784.94;;;9.77;83.92
61568;BME280;47462;59.172;17.196;2022-10-26T10:24:39;100792.56;;;9.85;83.36
61568;BME280;47462;59.172;17.196;2022-10-26T10:29:43;100715.66;;;9.32;82.31
61568;BME280;47462;59.172;17.196;2022-10-26T10:32:24;100797.19;;;9.73;82.53
61568;BME280;47462;59.172;17.196;2022-10-26T10:34:55;100806.25;;;9.57;82.76
61568;BME280;47462;59.172;17.196;2022-10-26T10:37:37;100807.16;;;9.56;82.84
61568;BME280;47462;59.172;17.196;2022-10-26T10:40:13;100788.25;;;9.46;82.76
61568;BME280;47462;59.172;17.196;2022-10-26T10:42:44;100828.00;;;9.56;82.67
61568;BME280;47462;59.172;17.196;2022-10-26T10:45:22;100791.16;;;9.34;82.77
61568;BME280;47462;59.172;17.196;2022-10-26T10:48:22;100827.00;;;9.61;82.89
61568;BME280;47462;59.172;17.196;2022-10-26T10:51:02;100818.94;;;9.72;82.76
61568;BME280;47462;59.172;17.196;2022-10-26T11:01:29;100839.56;;;9.81;82.48
61568;BME280;47462;59.172;17.196;2022-10-26T11:06:55;100812.97;;;9.67;82.54
61568;BME280;47462;59.172;17.196;2022-10-26T11:09:27;100814.66;;;9.70;82.43
61568;BME280;47462;59.172;17.196;2022-10-26T11:12:17;100850.53;;;9.96;82.55
61568;BME280;47462;59.172;17.196;2022-10-26T11:14:55;100854.03;;;9.95;82.14
61568;BME280;47462;59.172;17.196;2022-10-26T11:17:37;100838.03;;;9.73;82.06
61568;BME280;47462;59.172;17.196;2022-10-26T11:20:16;100507.66;;;7.65;81.60
61568;BME280;47462;59.172;17.196;2022-10-26T11:25:33;100868.47;;;9.71;82.59
61568;BME280;47462;59.172;17.196;2022-10-26T11:30:59;100868.78;;;9.57;83.10
61568;BME280;47462;59.172;17.196;2022-10-26T11:33:34;100861.56;;;9.70;83.27
61568;BME280;47462;59.172;17.196;2022-10-26T11:36:09;100867.63;;;9.70;83.02
61568;BME280;47462;59.172;17.196;2022-10-26T11:38:48;100865.06;;;9.69;83.03
61568;BME280;47462;59.172;17.196;2022-10-26T11:41:34;100747.72;;;8.95;83.06
61568;BME280;47462;59.172;17.196;2022-10-26T11:44:12;100870.81;;;9.83;83.20
61568;BME280;47462;59.172;17.196;2022-10-26T11:46:48;100867.38;;;9.81;83.08
61568;BME280;47462;59.172;17.196;2022-10-26T11:49:31;100834.13;;;9.53;83.06
61568;BME280;47462;59.172;17.196;2022-10-26T11:52:04;100866.56;;;9.79;83.62
61568;BME280;47462;59.172;17.196;2022-10-26T11:54:45;100864.72;;;9.84;83.02
61568;BME280;47462;59.172;17.196;2022-10-26T11:57:14;100863.94;;;9.80;83.11
61568;BME280;47462;59.172;17.196;2022-10-26T11:59:49;100866.25;;;9.93;82.83
61568;BME280;47462;59.172;17.196;2022-10-26T12:02:19;100845.94;;;9.70;82.76
61568;BME280;47462;59.172;17.196;2022-10-26T12:04:52;100883.75;;;9.86;82.87
61568;BME280;47462;59.172;17.196;2022-10-26T12:07:25;100877.56;;;9.92;83.31
61568;BME280;47462;59.172;17.196;2022-10-26T12:09:51;100872.63;;;9.79;83.29
61568;BME280;47462;59.172;17.196;2022-10-26T12:18:22;100896.72;;;9.91;83.12
61568;BME280;47462;59.172;17.196;2022-10-26T12:20:59;100892.47;;;9.87;83.42
61568;BME280;47462;59.172;17.196;2022-10-26T12:23:33;100898.41;;;9.92;83.62
61568;BME280;47462;59.172;17.196;2022-10-26T12:34:11;100897.56;;;9.91;83.71
61568;BME280;47462;59.172;17.196;2022-10-26T12:39:33;100897.44;;;9.97;83.68
61568;BME280;47462;59.172;17.196;2022-10-26T12:52:48;100884.84;;;9.77;83.81
61568;BME280;47462;59.172;17.196;2022-10-26T13:06:19;100850.34;;;9.66;83.87
61568;BME280;47462;59.172;17.196;2022-10-26T13:08:54;100851.16;;;9.70;83.73
61568;BME280;47462;59.172;17.196;2022-10-26T13:13:57;100902.19;;;9.78;83.97
61568;BME280;47462;59.172;17.196;2022-10-26T13:16:26;100820.78;;;9.30;84.27
61568;BME280;47462;59.172;17.196;2022-10-26T13:18:52;100913.34;;;9.85;84.53
61568;BME280;47462;59.172;17.196;2022-10-26T13:21:19;100929.69;;;9.92;84.43
61568;BME280;47462;59.172;17.196;2022-10-26T13:24:10;100919.13;;;9.98;84.23
61568;BME280;47462;59.172;17.196;2022-10-26T13:29:34;100916.00;;;9.84;83.05
61568;BME280;47462;59.172;17.196;2022-10-26T13:32:19;100931.81;;;9.76;82.85
61568;BME280;47462;59.172;17.196;2022-10-26T13:34:45;100938.75;;;9.75;83.22
61568;BME280;47462;59.172;17.196;2022-10-26T13:39:39;100904.50;;;9.52;83.04
61568;BME280;47462;59.172;17.196;2022-10-26T13:42:07;100902.75;;;9.52;82.96
61568;BME280;47462;59.172;17.196;2022-10-26T13:44:42;100936.47;;;9.60;82.63
61568;BME280;47462;59.172;17.196;2022-10-26T13:47:28;100935.06;;;9.45;83.50
61568;BME280;47462;59.172;17.196;2022-10-26T13:49:59;100862.28;;;8.93;83.26
61568;BME280;47462;59.172;17.196;2022-10-26T13:52:34;100905.41;;;9.07;83.65
61568;BME280;47462;59.172;17.196;2022-10-26T13:55:08;100963.00;;;9.35;83.61
61568;BME280;47462;59.172;17.196;2022-10-26T13:57:42;100940.75;;;9.19;83.73
61568;BME280;47462;59.172;17.196;2022-10-26T14:00:21;100939.03;;;9.19;83.84
61568;BME280;47462;59.172;17.196;2022-10-26T14:02:47;100958.84;;;9.28;84.09
61568;BME280;47462;59.172;17.196;2022-10-26T14:05:15;100840.41;;;8.57;83.53
61568;BME280;47462;59.172;17.196;2022-10-26T14:07:42;100966.50;;;9.36;83.66
61568;BME280;47462;59.172;17.196;2022-10-26T14:10:41;100920.19;;;9.05;84.11
61568;BME280;47462;59.172;17.196;2022-10-26T14:13:14;100783.13;;;8.10;83.96
61568;BME280;47462;59.172;17.196;2022-10-26T14:15:44;100974.09;;;9.46;83.90
61568;BME280;47462;59.172;17.196;2022-10-26T14:18:17;100982.97;;;9.36;84.24
61568;BME280;47462;59.172;17.196;2022-10-26T14:20:49;100868.72;;;8.72;84.21
61568;BME280;47462;59.172;17.196;2022-10-26T14:23:27;100984.69;;;9.37;84.41
61568;BME280;47462;59.172;17.196;2022-10-26T14:25:54;100972.50;;;9.39;84.38
61568;BME280;47462;59.172;17.196;2022-10-26T14:28:22;100988.72;;;9.52;84.05
61568;BME280;47462;59.172;17.196;2022-10-26T14:30:47;100993.94;;;9.52;84.09
61568;BME280;47462;59.172;17.196;2022-10-26T14:33:18;100986.28;;;9.44;83.99
61568;BME280;47462;59.172;17.196;2022-10-26T14:35:45;100984.84;;;9.30;83.87
61568;BME280;47462;59.172;17.196;2022-10-26T14:38:21;100993.78;;;9.15;84.01
61568;BME280;47462;59.172;17.196;2022-10-26T14:40:51;101018.22;;;9.07;84.43
61568;BME280;47462;59.172;17.196;2022-10-26T14:43:21;100908.88;;;8.61;84.52
61568;BME280;47462;59.172;17.196;2022-10-26T14:45:50;100999.00;;;9.15;84.23
61568;BME280;47462;59.172;17.196;2022-10-26T14:48:27;100998.94;;;9.18;84.04
61568;BME280;47462;59.172;17.196;2022-10-26T14:51:16;100999.06;;;9.12;84.02
61568;BME280;47462;59.172;17.196;2022-10-26T14:53:48;101009.47;;;9.12;84.05
61568;BME280;47462;59.172;17.196;2022-10-26T14:58:55;100980.34;;;8.88;84.75
61568;BME280;47462;59.172;17.196;2022-10-26T15:03:48;101024.19;;;9.13;84.71
61568;BME280;47462;59.172;17.196;2022-10-26T15:06:28;101019.84;;;9.13;84.43
61568;BME280;47462;59.172;17.196;2022-10-26T15:08:59;101026.72;;;9.17;84.71
61568;BME280;47462;59.172;17.196;2022-10-26T15:11:28;100970.00;;;8.85;84.59
61568;BME280;47462;59.172;17.196;2022-10-26T15:13:54;101000.19;;;8.95;84.53
61568;BME280;47462;59.172;17.196;2022-10-26T15:16:23;100939.16;;;8.63;84.59
61568;BME280;47462;59.172;17.196;2022-10-26T15:18:51;101031.88;;;9.19;84.29
61568;BME280;47462;59.172;17.196;2022-10-26T15:21:23;101030.19;;;9.18;84.75
61568;BME280;47462;59.172;17.196;2022-10-26T15:23:50;100922.13;;;8.40;84.57
61568;BME280;47462;59.172;17.196;2022-10-26T15:26:16;101039.97;;;9.03;84.58